Time,TemperatureF,DewpointF,PressureIn,WindDirection,WindDirectionDegrees,WindSpeedMPH,WindSpeedGustMPH,Humidity,HourlyPrecipIn,Conditions,Clouds,dailyrainin,SoftwareType,DateUTC
2013-09-04 00:02:00,59.8,56.9,29.98,WNW,287,4.0,4.0,90,0.00,RA,,0.00,WeatherDisplay:10.37,2013-09-04 07:02:00,
2013-09-04 00:07:00,59.8,56.9,29.97,WNW,300,3.5,3.5,90,0.00,RA,,0.00,WeatherDisplay:10.37,2013-09-04 07:07:00,
2013-09-04 00:12:00,59.8,56.9,29.98,WNW,287,4.6,4.6,90,0.00,OVC,,0.00,WeatherDisplay:10.37,2013-09-04 07:12:00,
2013-09-04 00:17:00,59.8,56.9,29.98,WNW,293,5.8,5.8,90,0.00,OVC,,0.00,WeatherDisplay:10.37,2013-09-04 07:17:00,
2013-09-04 00:22:00,59.8,56.9,29.98,WNW,298,3.5,3.5,90,0.00,OVC,,0.00,WeatherDisplay:10.37,2013-09-04 07:22:00,
2013-09-04 00:27:00,60.0,57.4,29.98,WNW,295,4.6,4.6,91,0.00,OVC,,0.00,WeatherDisplay:10.37,2013-09-04 07:27:00,
2013-09-04 00:32:00,60.1,57.5,29.98,WNW,296,5.0,5.0,91,0.00,OVC,,0.00,WeatherDisplay:10.37,2013-09-04 07:32:00,
2013-09-04 00:37:00,60.1,57.5,29.98,WNW,282,4.6,4.6,91,0.00,OVC,,0.00,WeatherDisplay:10.37,2013-09-04 07:37:00,
2013-09-04 00:42:00,60.2,57.6,29.97,WNW,302,3.0,3.0,91,0.00,OVC,,0.00,WeatherDisplay:10.37,2013-09-04 07:42:00,
2013-09-04 00:47:00,60.2,57.3,29.97,WNW,300,4.0,4.0,90,0.00,OVC,,0.00,WeatherDisplay:10.37,2013-09-04 07:47:00,
2013-09-04 00:52:00,60.2,57.3,29.97,WNW,301,3.5,3.5,90,0.00,OVC,,0.00,WeatherDisplay:10.37,2013-09-04 07:52:00,
2013-09-04 00:57:00,60.2,57.3,29.97,WNW,301,3.5,3.5,90,0.00,OVC,,0.00,WeatherDisplay:10.37,2013-09-04 07:57:00,
2013-09-04 01:02:00,60.1,57.2,29.97,NW,305,4.6,4.6,90,0.00,OVC,,0.00,WeatherDisplay:10.37,2013-09-04 08:02:00,
2013-09-04 01:07:00,60.1,57.5,29.97,NW,306,2.3,2.3,91,0.00,OVC,,0.00,WeatherDisplay:10.37,2013-09-04 08:07:00,
2013-09-04 01:12:00,60.2,57.6,29.96,NW,308,3.5,3.5,91,0.00,OVC,,0.00,WeatherDisplay:10.37,2013-09-04 08:12:00,
2013-09-04 01:17:00,60.1,57.2,29.97,NW,308,2.3,2.3,90,0.00,OVC,,0.00,WeatherDisplay:10.37,2013-09-04 08:17:00,
2013-09-04 01:22:00,60.0,57.1,29.96,NW,308,1.1,1.1,90,0.00,OVC,,0.00,WeatherDisplay:10.37,2013-09-04 08:22:00,
2013-09-04 01:27:00,59.8,56.9,29.96,NW,308,1.1,0.0,90,0.00,OVC,,0.00,WeatherDisplay:10.37,2013-09-04 08:27:00,
2013-09-04 01:32:00,59.7,56.8,29.97,NW,308,0.0,0.0,90,0.00,OVC,,0.00,WeatherDisplay:10.37,2013-09-04 08:32:00,
2013-09-04 01:37:00,59.7,57.1,29.97,WNW,303,3.5,3.5,91,0.00,OVC,,0.00,WeatherDisplay:10.37,2013-09-04 08:37:00,
2013-09-04 01:42:00,59.5,56.9,29.97,WNW,298,2.0,2.0,91,0.00,OVC,,0.00,WeatherDisplay:10.37,2013-09-04 08:42:00,
2013-09-04 01:47:00,59.3,56.7,29.96,WNW,296,4.0,4.0,91,0.00,OVC,,0.00,WeatherDisplay:10.37,2013-09-04 08:47:00,
2013-09-04 01:52:00,59.3,56.7,29.96,WNW,302,3.5,3.5,91,0.00,OVC,,0.00,WeatherDisplay:10.37,2013-09-04 08:52:00,
2013-09-04 01:57:00,59.0,56.4,29.96,NW,306,3.5,3.5,91,0.00,OVC,,0.00,WeatherDisplay:10.37,2013-09-04 08:57:00,
2013-09-04 02:02:00,59.0,56.4,29.95,NW,304,3.5,3.5,91,0.00,OVC,,0.00,WeatherDisplay:10.37,2013-09-04 09:02:00,
2013-09-04 02:07:00,59.0,56.4,29.95,WNW,292,4.6,4.6,91,0.00,OVC,,0.00,WeatherDisplay:10.37,2013-09-04 09:07:00,
2013-09-04 02:12:00,59.0,56.4,29.95,WNW,295,6.9,6.9,91,0.00,OVC,,0.00,WeatherDisplay:10.37,2013-09-04 09:12:00,
2013-09-04 02:17:00,59.0,56.7,29.95,WNW,299,5.8,5.8,92,0.00,OVC,,0.00,WeatherDisplay:10.37,2013-09-04 09:17:00,
2013-09-04 02:22:00,59.0,56.7,29.95,West,281,3.5,3.5,92,0.00,OVC,,0.00,WeatherDisplay:10.37,2013-09-04 09:22:00,
2013-09-04 02:27:00,59.0,56.7,29.96,WNW,288,4.6,4.6,92,0.00,OVC,,0.00,WeatherDisplay:10.37,2013-09-04 09:27:00,
2013-09-04 02:32:00,59.0,56.7,29.96,WNW,288,4.6,4.6,92,0.00,OVC,,0.00,WeatherDisplay:10.37,2013-09-04 09:32:00,
2013-09-04 02:37:00,59.0,56.7,29.96,NW,310,3.5,3.5,92,0.00,OVC,,0.00,WeatherDisplay:10.37,2013-09-04 09:37:00,
2013-09-04 02:42:00,59.0,56.7,29.96,WNW,296,4.6,4.6,92,0.00,OVC,,0.00,WeatherDisplay:10.37,2013-09-04 09:42:00,
2013-09-04 02:47:00,59.0,56.7,29.96,WNW,286,0.0,0.0,92,0.00,OVC,,0.00,WeatherDisplay:10.37,2013-09-04 09:47:00,
2013-09-04 02:52:00,59.0,56.7,29.97,WNW,286,0.0,0.0,92,0.00,OVC,,0.00,WeatherDisplay:10.37,2013-09-04 09:52:00,
2013-09-04 02:57:00,59.0,56.7,29.97,WNW,286,0.0,0.0,92,0.00,OVC,,0.00,WeatherDisplay:10.37,2013-09-04 09:57:00,
2013-09-04 03:02:00,59.0,56.7,29.97,WNW,286,0.0,0.0,92,0.00,OVC,,0.00,WeatherDisplay:10.37,2013-09-04 10:02:00,
2013-09-04 03:07:00,58.8,56.5,29.97,WNW,286,0.0,0.0,92,0.00,OVC,,0.00,WeatherDisplay:10.37,2013-09-04 10:07:00,
2013-09-04 03:12:00,58.8,56.5,29.97,WNW,286,0.0,0.0,92,0.00,OVC,,0.00,WeatherDisplay:10.37,2013-09-04 10:12:00,
2013-09-04 03:17:00,58.7,56.4,29.97,WNW,286,2.3,0.0,92,0.00,OVC,,0.00,WeatherDisplay:10.37,2013-09-04 10:17:00,
2013-09-04 03:22:00,58.7,56.4,29.97,WNW,286,0.0,0.0,92,0.00,OVC,,0.00,WeatherDisplay:10.37,2013-09-04 10:22:00,
2013-09-04 03:27:00,58.7,56.4,29.97,WNW,286,0.0,0.0,92,0.00,OVC,,0.00,WeatherDisplay:10.37,2013-09-04 10:27:00,
2013-09-04 03:32:00,58.8,56.5,29.97,WNW,286,0.0,0.0,92,0.00,OVC,,0.00,WeatherDisplay:10.37,2013-09-04 10:32:00,
2013-09-04 03:37:00,58.9,56.6,29.97,WNW,286,0.0,0.0,92,0.00,OVC,,0.00,WeatherDisplay:10.37,2013-09-04 10:37:00,
2013-09-04 03:42:00,59.0,56.7,29.96,NW,308,1.1,1.1,92,0.00,OVC,,0.00,WeatherDisplay:10.37,2013-09-04 10:42:00,
2013-09-04 03:47:00,59.0,56.7,29.97,WNW,302,2.3,0.0,92,0.00,OVC,,0.00,WeatherDisplay:10.37,2013-09-04 10:47:00,
2013-09-04 03:52:00,59.0,56.7,29.97,WNW,286,5.8,5.8,92,0.00,OVC,,0.00,WeatherDisplay:10.37,2013-09-04 10:52:00,
2013-09-04 03:57:00,59.0,56.7,29.97,WNW,286,4.6,4.6,92,0.00,OVC,,0.00,WeatherDisplay:10.37,2013-09-04 10:57:00,
2013-09-04 04:02:00,59.3,57.0,29.97,WNW,294,2.3,2.3,92,0.00,OVC,,0.00,WeatherDisplay:10.37,2013-09-04 11:02:00,
2013-09-04 04:07:00,59.4,57.1,29.96,WNW,286,3.5,3.5,92,0.00,OVC,,0.00,WeatherDisplay:10.37,2013-09-04 11:07:00,
2013-09-04 04:12:00,59.3,57.0,29.96,WNW,286,2.3,2.3,92,0.00,OVC,,0.00,WeatherDisplay:10.37,2013-09-04 11:12:00,
2013-09-04 04:17:00,59.2,56.9,29.97,WNW,296,3.5,3.5,92,0.00,OVC,,0.00,WeatherDisplay:10.37,2013-09-04 11:17:00,
2013-09-04 04:22:00,59.0,56.7,29.96,WNW,296,1.1,0.0,92,0.00,OVC,,0.00,WeatherDisplay:10.37,2013-09-04 11:22:00,
2013-09-04 04:27:00,59.0,56.7,29.96,WNW,296,0.0,0.0,92,0.00,OVC,,0.00,WeatherDisplay:10.37,2013-09-04 11:27:00,
2013-09-04 04:32:00,59.0,56.7,29.96,WNW,296,0.0,0.0,92,0.00,OVC,,0.00,WeatherDisplay:10.37,2013-09-04 11:32:00,
2013-09-04 04:37:00,59.0,56.7,29.96,WNW,296,0.0,0.1,92,0.00,OVC,,0.00,WeatherDisplay:10.37,2013-09-04 11:37:00,
2013-09-04 04:42:00,58.9,56.6,29.96,WNW,296,2.0,2.0,92,0.00,OVC,,0.00,WeatherDisplay:10.37,2013-09-04 11:42:00,
2013-09-04 04:47:00,58.8,56.5,29.96,WNW,296,3.5,3.5,92,0.00,OVC,,0.00,WeatherDisplay:10.37,2013-09-04 11:47:00,
2013-09-04 04:52:00,58.7,56.4,29.96,WNW,293,3.5,3.5,92,0.00,OVC,,0.00,WeatherDisplay:10.37,2013-09-04 11:52:00,
2013-09-04 04:57:00,58.9,56.6,29.96,WNW,296,1.1,0.0,92,0.00,OVC,,0.00,WeatherDisplay:10.37,2013-09-04 11:57:00,
2013-09-04 05:02:00,58.9,56.6,29.96,WNW,298,3.5,3.5,92,0.00,OVC,,0.00,WeatherDisplay:10.37,2013-09-04 12:02:00,
2013-09-04 05:07:00,59.0,56.7,29.96,WNW,297,1.1,1.1,92,0.00,OVC,,0.00,WeatherDisplay:10.37,2013-09-04 12:07:00,
2013-09-04 05:12:00,59.0,56.7,29.96,WNW,297,0.0,0.0,92,0.00,OVC,,0.00,WeatherDisplay:10.37,2013-09-04 12:12:00,
2013-09-04 05:17:00,59.0,56.7,29.96,WNW,297,0.0,0.0,92,0.00,OVC,,0.00,WeatherDisplay:10.37,2013-09-04 12:17:00,
2013-09-04 05:22:00,59.0,57.0,29.97,WNW,297,1.1,1.1,93,0.00,OVC,,0.00,WeatherDisplay:10.37,2013-09-04 12:22:00,
2013-09-04 05:27:00,59.0,57.0,29.97,WNW,297,2.3,0.0,93,0.00,OVC,,0.00,WeatherDisplay:10.37,2013-09-04 12:27:00,
2013-09-04 05:32:00,59.0,57.0,29.97,WNW,302,2.3,2.3,93,0.00,OVC,,0.00,WeatherDisplay:10.37,2013-09-04 12:32:00,
2013-09-04 05:37:00,59.0,57.0,29.97,NW,306,3.5,3.5,93,0.00,OVC,,0.00,WeatherDisplay:10.37,2013-09-04 12:37:00,
2013-09-04 05:42:00,59.0,57.0,29.97,WNW,303,3.5,3.5,93,0.00,OVC,,0.00,WeatherDisplay:10.37,2013-09-04 12:42:00,
2013-09-04 05:47:00,59.0,57.0,29.96,WNW,303,1.1,0.0,93,0.00,OVC,,0.00,WeatherDisplay:10.37,2013-09-04 12:47:00,
2013-09-04 05:52:00,59.0,57.0,29.96,WNW,298,3.5,3.5,93,0.00,OVC,,0.00,WeatherDisplay:10.37,2013-09-04 12:52:00,
2013-09-04 05:57:00,59.0,57.0,29.97,WNW,298,0.0,0.0,93,0.00,OVC,,0.00,WeatherDisplay:10.37,2013-09-04 12:57:00,
2013-09-04 06:02:00,59.0,57.0,29.97,WNW,298,1.1,1.1,93,0.00,OVC,,0.00,WeatherDisplay:10.37,2013-09-04 13:02:00,
2013-09-04 06:07:00,59.0,57.0,29.97,WNW,298,0.0,0.0,93,0.00,OVC,,0.00,WeatherDisplay:10.37,2013-09-04 13:07:00,
2013-09-04 06:12:00,59.0,57.0,29.97,WNW,298,0.0,0.0,93,0.00,OVC,,0.00,WeatherDisplay:10.37,2013-09-04 13:12:00,
2013-09-04 06:17:00,59.0,57.0,29.98,WNW,298,0.0,0.0,93,0.00,OVC,,0.00,WeatherDisplay:10.37,2013-09-04 13:17:00,
2013-09-04 06:22:00,59.0,57.0,29.98,WNW,298,0.0,0.0,93,0.00,OVC,,0.00,WeatherDisplay:10.37,2013-09-04 13:22:00,
2013-09-04 06:27:00,59.0,57.0,29.98,WNW,298,0.0,0.0,93,0.00,OVC,,0.00,WeatherDisplay:10.37,2013-09-04 13:27:00,
2013-09-04 06:32:00,59.0,57.0,29.98,WNW,298,1.1,0.0,93,0.00,OVC,,0.00,WeatherDisplay:10.37,2013-09-04 13:32:00,
2013-09-04 06:37:00,59.0,57.0,29.98,WNW,298,0.0,0.0,93,0.00,OVC,,0.00,WeatherDisplay:10.37,2013-09-04 13:37:00,
2013-09-04 06:42:00,59.0,57.0,29.98,WNW,298,0.0,0.0,93,0.00,OVC,,0.00,WeatherDisplay:10.37,2013-09-04 13:42:00,
2013-09-04 06:47:00,59.0,57.0,29.98,WNW,296,2.3,2.3,93,0.00,OVC,,0.00,WeatherDisplay:10.37,2013-09-04 13:47:00,
2013-09-04 06:52:00,59.0,57.0,29.99,SW,216,3.5,3.5,93,0.00,OVC,,0.00,WeatherDisplay:10.37,2013-09-04 13:52:00,
2013-09-04 06:57:00,59.0,57.0,29.99,SW,216,1.1,1.1,93,0.00,OVC,,0.00,WeatherDisplay:10.37,2013-09-04 13:57:00,
2013-09-04 07:02:00,59.0,57.0,29.99,SW,216,1.1,1.1,93,0.00,OVC,,0.00,WeatherDisplay:10.37,2013-09-04 14:02:00,
2013-09-04 07:07:00,59.0,57.0,29.99,SW,216,0.0,0.0,93,0.00,OVC,,0.00,WeatherDisplay:10.37,2013-09-04 14:07:00,
2013-09-04 07:12:00,59.0,57.0,29.99,SW,216,0.0,0.0,93,0.00,OVC,,0.00,WeatherDisplay:10.37,2013-09-04 14:12:00,
2013-09-04 07:17:00,59.0,57.0,29.99,SW,216,0.0,0.0,93,0.00,OVC,,0.00,WeatherDisplay:10.37,2013-09-04 14:17:00,
2013-09-04 07:22:00,59.0,57.0,29.99,SW,216,0.0,0.0,93,0.00,OVC,,0.00,WeatherDisplay:10.37,2013-09-04 14:22:00,
2013-09-04 07:27:00,59.0,57.0,29.99,SW,216,0.0,0.0,93,0.00,OVC,,0.00,WeatherDisplay:10.37,2013-09-04 14:27:00,
2013-09-04 07:32:00,59.0,57.0,29.99,SW,216,0.0,0.0,93,0.00,OVC,,0.00,WeatherDisplay:10.37,2013-09-04 14:32:00,
2013-09-04 07:37:00,59.0,57.0,29.99,SW,216,0.0,0.0,93,0.00,OVC,,0.00,WeatherDisplay:10.37,2013-09-04 14:37:00,
2013-09-04 07:42:00,59.0,57.0,29.99,SW,216,0.0,0.0,93,0.00,OVC,,0.00,WeatherDisplay:10.37,2013-09-04 14:42:00,
2013-09-04 07:47:00,59.0,57.0,29.99,SW,216,0.0,0.0,93,0.00,OVC,,0.00,WeatherDisplay:10.37,2013-09-04 14:47:00,
2013-09-04 07:52:00,59.2,57.2,29.99,SW,216,0.0,0.2,93,0.00,OVC,,0.00,WeatherDisplay:10.37,2013-09-04 14:52:00,
2013-09-04 07:57:00,59.4,57.4,29.99,SW,216,1.0,1.0,93,0.00,OVC,,0.00,WeatherDisplay:10.37,2013-09-04 14:57:00,
2013-09-04 08:02:00,59.5,57.5,30.00,SW,216,3.5,3.5,93,0.00,OVC,,0.00,WeatherDisplay:10.37,2013-09-04 15:02:00,
2013-09-04 08:07:00,59.5,57.5,30.00,SW,216,1.1,0.0,93,0.00,OVC,,0.00,WeatherDisplay:10.37,2013-09-04 15:07:00,
2013-09-04 08:12:00,59.5,57.5,30.00,SW,216,1.0,1.0,93,0.00,OVC,,0.00,WeatherDisplay:10.37,2013-09-04 15:12:00,
2013-09-04 08:17:00,59.4,57.4,30.00,SW,221,1.1,1.1,93,0.00,OVC,,0.00,WeatherDisplay:10.37,2013-09-04 15:17:00,
2013-09-04 08:22:00,59.4,57.4,30.00,SW,221,2.3,0.0,93,0.00,OVC,,0.00,WeatherDisplay:10.37,2013-09-04 15:22:00,
2013-09-04 08:27:00,59.5,57.5,29.99,SW,221,0.0,0.0,93,0.00,OVC,,0.00,WeatherDisplay:10.37,2013-09-04 15:27:00,
2013-09-04 08:32:00,59.5,57.5,30.00,SW,221,2.3,2.3,93,0.00,OVC,,0.00,WeatherDisplay:10.37,2013-09-04 15:32:00,
2013-09-04 08:37:00,59.6,57.6,30.00,SW,221,1.1,0.0,93,0.00,OVC,,0.00,WeatherDisplay:10.37,2013-09-04 15:37:00,
2013-09-04 08:42:00,59.6,57.6,30.00,SW,221,0.0,0.0,93,0.00,OVC,,0.00,WeatherDisplay:10.37,2013-09-04 15:42:00,
2013-09-04 08:47:00,59.7,57.7,30.00,SW,221,0.0,0.0,93,0.00,OVC,,0.00,WeatherDisplay:10.37,2013-09-04 15:47:00,
2013-09-04 08:52:00,59.7,57.7,30.00,SW,221,1.1,0.0,93,0.00,OVC,,0.00,WeatherDisplay:10.37,2013-09-04 15:52:00,
2013-09-04 08:57:00,59.7,57.7,30.00,SW,221,2.3,2.3,93,0.00,OVC,,0.00,WeatherDisplay:10.37,2013-09-04 15:57:00,
2013-09-04 09:02:00,59.8,57.8,30.00,West,265,3.5,3.5,93,0.00,OVC,,0.00,WeatherDisplay:10.37,2013-09-04 16:02:00,
2013-09-04 09:07:00,59.8,57.8,30.01,West,277,1.1,1.1,93,0.00,OVC,,0.00,WeatherDisplay:10.37,2013-09-04 16:07:00,
2013-09-04 09:12:00,59.8,57.8,30.01,WNW,288,3.5,3.5,93,0.00,OVC,,0.00,WeatherDisplay:10.37,2013-09-04 16:12:00,
2013-09-04 09:17:00,59.8,57.8,30.01,WNW,292,3.5,3.5,93,0.00,OVC,,0.00,WeatherDisplay:10.37,2013-09-04 16:17:00,
2013-09-04 09:22:00,59.8,57.5,30.01,WNW,292,2.3,2.3,92,0.00,OVC,,0.00,WeatherDisplay:10.37,2013-09-04 16:22:00,
2013-09-04 09:27:00,59.9,57.6,30.01,WNW,289,0.0,0.0,92,0.00,OVC,,0.00,WeatherDisplay:10.37,2013-09-04 16:27:00,
2013-09-04 09:32:00,60.0,57.7,30.01,WNW,286,5.0,5.0,92,0.00,OVC,,0.00,WeatherDisplay:10.37,2013-09-04 16:32:00,
2013-09-04 09:37:00,60.0,57.7,30.02,WNW,292,3.5,3.5,92,0.00,OVC,,0.00,WeatherDisplay:10.37,2013-09-04 16:37:00,
2013-09-04 09:42:00,60.2,57.9,30.02,WNW,287,5.0,5.0,92,0.00,OVC,,0.00,WeatherDisplay:10.37,2013-09-04 16:42:00,
2013-09-04 09:47:00,60.3,58.0,30.02,WNW,290,2.3,2.3,92,0.00,OVC,,0.00,WeatherDisplay:10.37,2013-09-04 16:47:00,
2013-09-04 09:52:00,60.4,58.1,30.01,WNW,291,1.1,1.1,92,0.00,OVC,,0.00,WeatherDisplay:10.37,2013-09-04 16:52:00,
2013-09-04 09:57:00,60.5,58.2,30.01,WNW,291,2.3,2.3,92,0.00,OVC,,0.00,WeatherDisplay:10.37,2013-09-04 16:57:00,
2013-09-04 10:02:00,60.6,58.3,30.01,WNW,291,1.1,0.0,92,0.00,OVC,,0.00,WeatherDisplay:10.37,2013-09-04 17:02:00,
2013-09-04 10:07:00,60.7,58.1,30.01,WNW,292,3.5,3.5,91,0.00,OVC,,0.00,WeatherDisplay:10.37,2013-09-04 17:07:00,
2013-09-04 10:12:00,60.8,58.2,30.01,WNW,292,1.1,0.0,91,0.00,OVC,,0.00,WeatherDisplay:10.37,2013-09-04 17:12:00,
2013-09-04 10:17:00,60.9,58.3,30.02,WNW,294,2.3,2.3,91,0.00,OVC,,0.00,WeatherDisplay:10.37,2013-09-04 17:17:00,
2013-09-04 10:22:00,60.9,58.3,30.02,WNW,294,0.0,0.0,91,0.00,OVC,,0.00,WeatherDisplay:10.37,2013-09-04 17:22:00,
2013-09-04 10:27:00,61.1,58.5,30.02,NW,304,3.5,3.5,91,0.00,OVC,,0.00,WeatherDisplay:10.37,2013-09-04 17:27:00,
2013-09-04 10:32:00,61.2,58.6,30.02,NW,309,3.5,3.5,91,0.00,OVC,,0.00,WeatherDisplay:10.37,2013-09-04 17:32:00,
2013-09-04 10:37:00,61.3,58.7,30.02,NW,309,1.1,1.1,91,0.00,OVC,,0.00,WeatherDisplay:10.37,2013-09-04 17:37:00,
2013-09-04 10:42:00,61.4,58.7,30.02,NW,309,0.0,0.0,91,0.00,OVC,,0.00,WeatherDisplay:10.37,2013-09-04 17:42:00,
2013-09-04 10:47:00,61.6,58.6,30.02,NW,309,0.0,0.0,90,0.00,OVC,,0.00,WeatherDisplay:10.37,2013-09-04 17:47:00,
2013-09-04 10:52:00,61.8,58.8,30.02,NW,306,2.3,2.3,90,0.00,OVC,,0.00,WeatherDisplay:10.37,2013-09-04 17:52:00,
2013-09-04 10:57:00,61.9,58.9,30.03,WNW,296,2.3,0.0,90,0.00,OVC,,0.00,WeatherDisplay:10.37,2013-09-04 17:57:00,
2013-09-04 11:02:00,62.1,59.1,30.03,WNW,295,1.1,0.0,90,0.00,OVC,,0.00,WeatherDisplay:10.37,2013-09-04 18:02:00,
2013-09-04 11:07:00,62.3,59.3,30.03,WNW,295,0.0,0.0,90,0.00,OVC,,0.00,WeatherDisplay:10.37,2013-09-04 18:07:00,
2013-09-04 11:12:00,62.5,59.5,30.03,WNW,296,0.0,0.0,90,0.00,OVC,,0.00,WeatherDisplay:10.37,2013-09-04 18:12:00,
2013-09-04 11:17:00,62.6,59.3,30.03,WNW,296,1.1,0.0,89,0.00,OVC,,0.00,WeatherDisplay:10.37,2013-09-04 18:17:00,
2013-09-04 11:22:00,62.7,59.4,30.03,WNW,296,1.1,1.1,89,0.00,OVC,,0.00,WeatherDisplay:10.37,2013-09-04 18:22:00,
2013-09-04 11:27:00,62.8,59.5,30.04,NW,306,3.5,3.5,89,0.00,OVC,,0.00,WeatherDisplay:10.37,2013-09-04 18:27:00,
2013-09-04 11:32:00,62.8,59.2,30.04,NW,306,2.3,2.3,88,0.00,OVC,,0.00,WeatherDisplay:10.37,2013-09-04 18:32:00,
2013-09-04 11:37:00,62.6,59.0,30.04,NW,319,3.0,3.0,88,0.00,OVC,,0.00,WeatherDisplay:10.37,2013-09-04 18:37:00,
2013-09-04 11:42:00,62.6,59.0,30.04,NNW,330,0.0,0.0,88,0.00,OVC,,0.00,WeatherDisplay:10.37,2013-09-04 18:42:00,
2013-09-04 11:47:00,62.6,59.0,30.05,NW,325,1.1,0.0,88,0.00,OVC,,0.00,WeatherDisplay:10.37,2013-09-04 18:47:00,
2013-09-04 11:52:00,62.6,59.0,30.04,NW,313,2.3,2.3,88,0.00,OVC,,0.00,WeatherDisplay:10.37,2013-09-04 18:52:00,
2013-09-04 11:57:00,62.5,58.9,30.04,NW,319,3.5,3.5,88,0.00,OVC,,0.00,WeatherDisplay:10.37,2013-09-04 18:57:00,
2013-09-04 12:02:00,62.4,58.8,30.04,NW,320,3.5,3.5,88,0.00,OVC,,0.00,WeatherDisplay:10.37,2013-09-04 19:02:00,
2013-09-04 12:07:00,62.4,58.8,30.04,NW,315,2.3,2.3,88,0.00,OVC,,0.00,WeatherDisplay:10.37,2013-09-04 19:07:00,
2013-09-04 12:12:00,62.6,59.3,30.03,NW,309,2.0,2.0,89,0.00,OVC,,0.00,WeatherDisplay:10.37,2013-09-04 19:12:00,
2013-09-04 12:17:00,63.0,59.4,30.04,WNW,289,5.8,5.8,88,0.00,OVC,,0.00,WeatherDisplay:10.37,2013-09-04 19:17:00,
2013-09-04 12:22:00,63.2,59.6,30.03,WNW,287,1.1,1.1,88,0.00,OVC,,0.00,WeatherDisplay:10.37,2013-09-04 19:22:00,
2013-09-04 12:27:00,63.8,60.2,30.03,WNW,287,1.1,1.1,88,0.00,OVC,,0.00,WeatherDisplay:10.37,2013-09-04 19:27:00,
2013-09-04 12:32:00,64.2,59.9,30.03,WNW,296,3.0,3.0,86,0.00,OVC,,0.00,WeatherDisplay:10.37,2013-09-04 19:32:00,
2013-09-04 12:37:00,64.5,60.2,30.03,West,279,5.0,5.0,86,0.00,OVC,,0.00,WeatherDisplay:10.37,2013-09-04 19:37:00,
2013-09-04 12:42:00,64.7,60.1,30.03,North,355,3.5,3.5,85,0.00,OVC,,0.00,WeatherDisplay:10.37,2013-09-04 19:42:00,
2013-09-04 12:47:00,64.9,60.3,30.03,NW,307,3.5,3.5,85,0.00,OVC,,0.00,WeatherDisplay:10.37,2013-09-04 19:47:00,
2013-09-04 12:52:00,65.6,60.6,30.03,WNW,301,3.5,3.5,84,0.00,OVC,,0.00,WeatherDisplay:10.37,2013-09-04 19:52:00,
2013-09-04 12:57:00,66.3,61.0,30.02,WNW,287,2.0,2.0,83,0.00,OVC,,0.00,WeatherDisplay:10.37,2013-09-04 19:57:00,
2013-09-04 13:02:00,66.8,59.7,30.02,WNW,293,9.2,9.2,78,0.00,OVC,,0.00,WeatherDisplay:10.37,2013-09-04 20:02:00,
2013-09-04 13:07:00,67.2,60.5,30.02,WNW,303,5.8,5.8,79,0.00,OVC,,0.00,WeatherDisplay:10.37,2013-09-04 20:07:00,
2013-09-04 13:12:00,67.3,60.9,30.01,WNW,286,2.3,2.3,80,0.00,OVC,,0.00,WeatherDisplay:10.37,2013-09-04 20:12:00,
2013-09-04 13:17:00,67.5,60.8,30.01,WNW,293,4.0,4.0,79,0.00,OVC,,0.00,WeatherDisplay:10.37,2013-09-04 20:17:00,
2013-09-04 13:22:00,67.8,60.7,30.01,WNW,300,3.5,3.5,78,0.00,OVC,,0.00,WeatherDisplay:10.37,2013-09-04 20:22:00,
2013-09-04 13:27:00,67.9,60.8,30.01,WNW,287,3.5,3.5,78,0.00,OVC,,0.00,WeatherDisplay:10.37,2013-09-04 20:27:00,
2013-09-04 13:32:00,68.0,60.5,30.01,WNW,293,6.9,6.9,77,0.00,OVC,,0.00,WeatherDisplay:10.37,2013-09-04 20:32:00,
2013-09-04 13:37:00,68.1,61.0,30.01,NW,308,11.0,11.0,78,0.00,OVC,,0.00,WeatherDisplay:10.37,2013-09-04 20:37:00,
2013-09-04 13:42:00,67.9,60.8,30.01,WNW,289,4.0,4.0,78,0.00,OVC,,0.00,WeatherDisplay:10.37,2013-09-04 20:42:00,
2013-09-04 13:47:00,68.1,60.6,30.01,WNW,284,3.5,3.5,77,0.00,OVC,,0.00,WeatherDisplay:10.37,2013-09-04 20:47:00,
2013-09-04 13:52:00,68.2,60.7,30.01,WNW,303,3.0,3.0,77,0.00,OVC,,0.00,WeatherDisplay:10.37,2013-09-04 20:52:00,
2013-09-04 13:57:00,68.4,60.9,30.02,WNW,294,3.5,3.5,77,0.00,OVC,,0.00,WeatherDisplay:10.37,2013-09-04 20:57:00,
2013-09-04 14:02:00,68.5,61.0,30.02,WNW,294,2.3,0.0,77,0.00,OVC,,0.00,WeatherDisplay:10.37,2013-09-04 21:02:00,
2013-09-04 14:07:00,68.4,60.9,30.02,SSW,193,3.5,3.5,77,0.00,OVC,,0.00,WeatherDisplay:10.37,2013-09-04 21:07:00,
2013-09-04 14:12:00,67.9,60.8,30.02,West,277,3.5,3.5,78,0.00,OVC,,0.00,WeatherDisplay:10.37,2013-09-04 21:12:00,
2013-09-04 14:17:00,67.5,60.8,30.03,NW,314,3.5,3.5,79,0.00,OVC,,0.00,WeatherDisplay:10.37,2013-09-04 21:17:00,
2013-09-04 14:22:00,67.0,61.0,30.03,NW,313,0.0,0.0,81,0.00,OVC,,0.00,WeatherDisplay:10.37,2013-09-04 21:22:00,
2013-09-04 14:27:00,66.8,60.8,30.03,NW,313,1.1,0.0,81,0.00,OVC,,0.00,WeatherDisplay:10.37,2013-09-04 21:27:00,
2013-09-04 14:32:00,66.8,60.8,30.03,North,351,3.5,3.5,81,0.00,OVC,,0.00,WeatherDisplay:10.37,2013-09-04 21:32:00,
2013-09-04 14:37:00,66.4,60.4,30.03,NW,324,5.0,5.0,81,0.00,OVC,,0.00,WeatherDisplay:10.37,2013-09-04 21:37:00,
2013-09-04 14:42:00,65.9,60.2,30.03,NW,306,3.5,3.5,82,0.00,OVC,,0.00,WeatherDisplay:10.37,2013-09-04 21:42:00,
2013-09-04 14:47:00,65.6,60.3,30.03,NW,309,3.5,3.5,83,0.00,OVC,,0.00,WeatherDisplay:10.37,2013-09-04 21:47:00,
2013-09-04 14:52:00,65.5,60.2,30.04,NW,313,1.1,1.1,83,0.00,OVC,,0.00,WeatherDisplay:10.37,2013-09-04 21:52:00,
2013-09-04 14:57:00,65.2,59.9,30.03,NW,309,3.5,3.5,83,0.00,OVC,,0.00,WeatherDisplay:10.37,2013-09-04 21:57:00,
2013-09-04 15:02:00,65.1,60.1,30.03,WNW,298,2.3,2.3,84,0.00,OVC,,0.00,WeatherDisplay:10.37,2013-09-04 22:02:00,
2013-09-04 15:07:00,65.1,60.1,30.03,WNW,298,0.0,0.0,84,0.00,OVC,,0.00,WeatherDisplay:10.37,2013-09-04 22:07:00,
2013-09-04 15:12:00,65.2,60.6,30.03,WNW,302,0.0,0.7,85,0.00,OVC,,0.00,WeatherDisplay:10.37,2013-09-04 22:12:00,
2013-09-04 15:17:00,65.3,60.3,30.03,WNW,296,4.6,4.6,84,0.00,OVC,,0.00,WeatherDisplay:10.37,2013-09-04 22:17:00,
2013-09-04 15:22:00,65.4,60.8,30.03,NW,317,3.0,3.0,85,0.00,OVC,,0.00,WeatherDisplay:10.37,2013-09-04 22:22:00,
2013-09-04 15:27:00,65.7,60.7,30.03,West,279,4.6,4.6,84,0.00,OVC,,0.00,WeatherDisplay:10.37,2013-09-04 22:27:00,
2013-09-04 15:32:00,66.0,61.0,30.02,WNW,303,3.5,3.5,84,0.00,OVC,,0.00,WeatherDisplay:10.37,2013-09-04 22:32:00,
2013-09-04 15:37:00,66.5,60.8,30.02,WNW,296,1.1,1.1,82,0.00,OVC,,0.00,WeatherDisplay:10.37,2013-09-04 22:37:00,
2013-09-04 15:42:00,67.2,61.5,30.02,WNW,285,2.3,2.3,82,0.00,OVC,,0.00,WeatherDisplay:10.37,2013-09-04 22:42:00,
2013-09-04 15:47:00,67.9,60.8,30.02,NW,305,8.1,8.1,78,0.00,OVC,,0.00,WeatherDisplay:10.37,2013-09-04 22:47:00,
2013-09-04 15:52:00,68.3,61.5,30.02,NW,315,3.5,3.5,79,0.00,OVC,,0.00,WeatherDisplay:10.37,2013-09-04 22:52:00,
2013-09-04 15:57:00,68.8,61.3,30.02,NW,312,5.8,5.8,77,0.00,OVC,,0.00,WeatherDisplay:10.37,2013-09-04 22:57:00,
2013-09-04 16:02:00,69.1,61.2,30.02,WNW,295,6.0,6.0,76,0.00,OVC,,0.00,WeatherDisplay:10.37,2013-09-04 23:02:00,
2013-09-04 16:07:00,69.1,60.5,30.02,WNW,291,6.9,6.9,74,0.00,OVC,,0.00,WeatherDisplay:10.37,2013-09-04 23:07:00,
2013-09-04 16:12:00,69.1,60.8,30.01,WNW,300,3.5,3.5,75,0.00,OVC,,0.00,WeatherDisplay:10.37,2013-09-04 23:12:00,
2013-09-04 16:17:00,69.0,61.1,30.01,WNW,282,3.5,3.5,76,0.00,OVC,,0.00,WeatherDisplay:10.37,2013-09-04 23:17:00,
2013-09-04 16:22:00,68.9,61.0,30.01,WNW,302,6.9,6.9,76,0.00,OVC,,0.00,WeatherDisplay:10.37,2013-09-04 23:22:00,
2013-09-04 16:27:00,69.0,61.1,30.01,WNW,287,2.3,2.3,76,0.00,OVC,,0.00,WeatherDisplay:10.37,2013-09-04 23:27:00,
2013-09-04 16:32:00,69.2,61.3,30.01,WNW,295,3.5,3.5,76,0.00,OVC,,0.00,WeatherDisplay:10.37,2013-09-04 23:32:00,
2013-09-04 16:37:00,69.3,61.0,30.01,WNW,290,3.5,3.5,75,0.00,OVC,,0.00,WeatherDisplay:10.37,2013-09-04 23:37:00,
2013-09-04 16:42:00,69.3,61.4,30.01,WNW,297,2.0,2.0,76,0.00,OVC,,0.00,WeatherDisplay:10.37,2013-09-04 23:42:00,
2013-09-04 16:47:00,69.2,61.3,30.00,WNW,296,2.3,2.3,76,0.00,OVC,,0.00,WeatherDisplay:10.37,2013-09-04 23:47:00,
2013-09-04 16:52:00,69.3,61.4,30.00,WNW,296,2.3,2.3,76,0.00,OVC,,0.00,WeatherDisplay:10.37,2013-09-04 23:52:00,
2013-09-04 16:57:00,69.3,61.4,30.00,WNW,296,2.3,2.3,76,0.00,OVC,,0.00,WeatherDisplay:10.37,2013-09-04 23:57:00,
2013-09-04 17:02:00,69.2,60.9,30.00,West,274,3.5,3.5,75,0.00,OVC,,0.00,WeatherDisplay:10.37,2013-09-05 00:02:00,
2013-09-04 17:07:00,69.2,61.7,30.00,West,278,3.5,3.5,77,0.00,OVC,,0.00,WeatherDisplay:10.37,2013-09-05 00:07:00,
2013-09-04 17:12:00,69.3,61.4,30.00,NW,306,1.1,0.0,76,0.00,OVC,,0.00,WeatherDisplay:10.37,2013-09-05 00:12:00,
2013-09-04 17:17:00,69.3,61.4,30.00,NW,315,3.5,3.5,76,0.00,OVC,,0.00,WeatherDisplay:10.37,2013-09-05 00:17:00,
2013-09-04 17:22:00,69.2,61.3,30.00,WNW,293,4.0,4.0,76,0.00,OVC,,0.00,WeatherDisplay:10.37,2013-09-05 00:22:00,
2013-09-04 17:27:00,69.0,60.7,30.00,North,11,3.5,3.5,75,0.00,OVC,,0.00,WeatherDisplay:10.37,2013-09-05 00:27:00,
2013-09-04 17:32:00,68.9,61.0,30.00,WNW,286,3.5,3.5,76,0.00,OVC,,0.00,WeatherDisplay:10.37,2013-09-05 00:32:00,
2013-09-04 17:37:00,68.8,60.9,30.00,WNW,288,4.6,4.6,76,0.00,OVC,,0.00,WeatherDisplay:10.37,2013-09-05 00:37:00,
2013-09-04 17:42:00,68.6,60.7,30.00,WNW,291,3.5,3.5,76,0.00,OVC,,0.00,WeatherDisplay:10.37,2013-09-05 00:42:00,
2013-09-04 17:47:00,68.4,60.9,30.00,WNW,287,2.3,2.3,77,0.00,OVC,,0.00,WeatherDisplay:10.37,2013-09-05 00:47:00,
2013-09-04 17:52:00,68.2,60.7,30.00,WNW,290,4.6,4.6,77,0.00,OVC,,0.00,WeatherDisplay:10.37,2013-09-05 00:52:00,
2013-09-04 17:57:00,68.0,60.9,30.00,WNW,299,3.5,3.5,78,0.00,OVC,,0.00,WeatherDisplay:10.37,2013-09-05 00:57:00,
2013-09-04 18:02:00,67.9,61.1,30.00,NE,38,1.1,1.1,79,0.00,OVC,,0.00,WeatherDisplay:10.37,2013-09-05 01:02:00,
2013-09-04 18:07:00,67.8,61.0,30.00,NE,38,0.0,0.0,79,0.00,OVC,,0.00,WeatherDisplay:10.37,2013-09-05 01:07:00,
2013-09-04 18:12:00,67.8,61.0,29.99,NW,312,0.0,0.0,79,0.00,OVC,,0.00,WeatherDisplay:10.37,2013-09-05 01:12:00,
2013-09-04 18:17:00,67.7,61.0,30.00,West,276,1.1,1.1,79,0.00,OVC,,0.00,WeatherDisplay:10.37,2013-09-05 01:17:00,
2013-09-04 18:22:00,67.7,61.0,30.00,West,276,1.1,1.1,79,0.00,OVC,,0.00,WeatherDisplay:10.37,2013-09-05 01:22:00,
2013-09-04 18:27:00,67.6,60.9,30.00,West,276,0.0,0.1,79,0.00,OVC,,0.00,WeatherDisplay:10.37,2013-09-05 01:27:00,
2013-09-04 18:32:00,67.5,60.8,30.00,West,276,2.3,2.3,79,0.00,OVC,,0.00,WeatherDisplay:10.37,2013-09-05 01:32:00,
2013-09-04 18:37:00,67.4,61.0,30.00,West,276,1.0,0.0,80,0.00,OVC,,0.00,WeatherDisplay:10.37,2013-09-05 01:37:00,
2013-09-04 18:42:00,67.2,60.8,29.99,WNW,288,6.9,6.9,80,0.00,OVC,,0.00,WeatherDisplay:10.37,2013-09-05 01:42:00,
2013-09-04 18:47:00,67.1,61.1,29.99,WNW,288,1.1,1.1,81,0.00,OVC,,0.00,WeatherDisplay:10.37,2013-09-05 01:47:00,
2013-09-04 18:52:00,67.1,61.1,29.99,WNW,288,0.0,0.0,81,0.00,OVC,,0.00,WeatherDisplay:10.37,2013-09-05 01:52:00,
2013-09-04 18:57:00,66.9,60.9,29.99,WNW,288,0.0,0.0,81,0.00,OVC,,0.00,WeatherDisplay:10.37,2013-09-05 01:57:00,
2013-09-04 19:02:00,66.9,60.9,29.99,WNW,288,0.0,0.0,81,0.00,OVC,,0.00,WeatherDisplay:10.37,2013-09-05 02:02:00,
2013-09-04 19:07:00,66.9,61.2,29.99,WNW,288,0.0,0.0,82,0.00,OVC,,0.00,WeatherDisplay:10.37,2013-09-05 02:07:00,
2013-09-04 19:12:00,66.8,61.1,29.99,WNW,288,0.0,0.1,82,0.00,OVC,,0.00,WeatherDisplay:10.37,2013-09-05 02:12:00,
2013-09-04 19:17:00,66.8,61.1,29.99,WNW,288,0.0,0.0,82,0.00,OVC,,0.00,WeatherDisplay:10.37,2013-09-05 02:17:00,
2013-09-04 19:22:00,66.7,61.0,29.99,WNW,288,0.0,0.0,82,0.00,OVC,,0.00,WeatherDisplay:10.37,2013-09-05 02:22:00,
2013-09-04 19:27:00,66.7,61.0,29.99,WNW,288,0.0,0.0,82,0.00,OVC,,0.00,WeatherDisplay:10.37,2013-09-05 02:27:00,
2013-09-04 19:32:00,66.5,60.8,29.99,WNW,288,0.0,0.0,82,0.00,OVC,,0.00,WeatherDisplay:10.37,2013-09-05 02:32:00,
2013-09-04 19:37:00,66.5,60.8,30.00,WNW,288,0.0,0.0,82,0.00,OVC,,0.00,WeatherDisplay:10.37,2013-09-05 02:37:00,
2013-09-04 19:42:00,66.3,60.6,30.00,WNW,288,0.0,0.0,82,0.00,OVC,,0.00,WeatherDisplay:10.37,2013-09-05 02:42:00,
2013-09-04 19:47:00,66.1,60.8,29.99,WNW,288,0.0,0.0,83,0.00,OVC,,0.00,WeatherDisplay:10.37,2013-09-05 02:47:00,
2013-09-04 19:52:00,66.0,60.7,29.99,WNW,288,2.3,2.3,83,0.00,OVC,,0.00,WeatherDisplay:10.37,2013-09-05 02:52:00,
2013-09-04 19:57:00,65.7,60.4,29.99,WNW,302,2.0,2.0,83,0.00,OVC,,0.00,WeatherDisplay:10.37,2013-09-05 02:57:00,
2013-09-04 20:02:00,65.5,60.5,30.00,WNW,302,0.0,0.0,84,0.00,OVC,,0.00,WeatherDisplay:10.37,2013-09-05 03:02:00,
2013-09-04 20:07:00,65.3,60.3,30.01,WNW,302,0.0,0.0,84,0.00,OVC,,0.00,WeatherDisplay:10.37,2013-09-05 03:07:00,
2013-09-04 20:12:00,65.1,60.5,30.00,WNW,302,0.0,0.0,85,0.00,OVC,,0.00,WeatherDisplay:10.37,2013-09-05 03:12:00,
2013-09-04 20:17:00,65.0,60.4,30.00,WNW,302,0.0,0.0,85,0.00,OVC,,0.00,WeatherDisplay:10.37,2013-09-05 03:17:00,
2013-09-04 20:22:00,64.8,60.2,30.00,WNW,296,0.0,0.1,85,0.00,OVC,,0.00,WeatherDisplay:10.37,2013-09-05 03:22:00,
2013-09-04 20:27:00,64.7,60.4,30.00,West,262,3.5,3.5,86,0.00,OVC,,0.00,WeatherDisplay:10.37,2013-09-05 03:27:00,
2013-09-04 20:32:00,64.6,60.3,30.00,WNW,297,5.8,5.8,86,0.00,OVC,,0.00,WeatherDisplay:10.37,2013-09-05 03:32:00,
2013-09-04 20:37:00,64.5,59.9,30.01,WNW,294,4.6,4.6,85,0.00,OVC,,0.00,WeatherDisplay:10.37,2013-09-05 03:37:00,
2013-09-04 20:42:00,64.4,59.8,30.01,NW,305,5.0,5.0,85,0.00,OVC,,0.00,WeatherDisplay:10.37,2013-09-05 03:42:00,
2013-09-04 20:47:00,64.4,59.8,30.01,WNW,293,3.5,3.5,85,0.00,OVC,,0.00,WeatherDisplay:10.37,2013-09-05 03:47:00,
2013-09-04 20:52:00,64.3,59.7,30.01,WNW,299,3.5,3.5,85,0.00,OVC,,0.00,WeatherDisplay:10.37,2013-09-05 03:52:00,
2013-09-04 20:57:00,64.3,59.7,30.01,WNW,286,4.6,4.6,85,0.00,OVC,,0.00,WeatherDisplay:10.37,2013-09-05 03:57:00,
2013-09-04 21:01:00,64.2,59.9,30.01,West,281,3.5,3.5,86,0.00,OVC,,0.00,WeatherDisplay:10.37,2013-09-05 04:01:00,
2013-09-04 21:03:00,64.1,59.8,30.02,WNW,292,3.5,3.5,86,0.00,OVC,,0.00,WeatherDisplay:10.37,2013-09-05 04:03:00,
2013-09-04 21:08:00,64.0,59.7,30.02,WNW,298,2.3,2.3,86,0.00,OVC,,0.00,WeatherDisplay:10.37,2013-09-05 04:08:00,
2013-09-04 21:13:00,64.0,59.7,30.02,WNW,292,2.3,2.3,86,0.00,OVC,,0.00,WeatherDisplay:10.37,2013-09-05 04:13:00,
2013-09-04 21:18:00,63.9,59.6,30.02,WNW,292,0.0,0.0,86,0.00,OVC,,0.00,WeatherDisplay:10.37,2013-09-05 04:18:00,
2013-09-04 21:23:00,63.8,59.5,30.02,WNW,292,0.0,0.0,86,0.00,OVC,,0.00,WeatherDisplay:10.37,2013-09-05 04:23:00,
2013-09-04 21:28:00,63.7,59.4,30.01,WNW,292,0.0,0.0,86,0.00,OVC,,0.00,WeatherDisplay:10.37,2013-09-05 04:28:00,
2013-09-04 21:33:00,63.6,59.7,30.01,WNW,292,1.1,1.1,87,0.00,OVC,,0.00,WeatherDisplay:10.37,2013-09-05 04:33:00,
2013-09-04 21:38:00,63.5,59.6,30.01,WNW,292,0.0,0.0,87,0.00,OVC,,0.00,WeatherDisplay:10.37,2013-09-05 04:38:00,
2013-09-04 21:43:00,63.4,59.5,30.01,WNW,292,0.0,0.0,87,0.00,OVC,,0.00,WeatherDisplay:10.37,2013-09-05 04:43:00,
2013-09-04 21:48:00,63.2,59.3,30.01,WNW,292,1.1,1.1,87,0.00,OVC,,0.00,WeatherDisplay:10.37,2013-09-05 04:48:00,
2013-09-04 21:53:00,63.1,59.2,30.01,WSW,252,3.5,3.5,87,0.00,OVC,,0.00,WeatherDisplay:10.37,2013-09-05 04:53:00,
2013-09-04 21:58:00,63.0,59.1,30.02,WSW,252,1.1,0.0,87,0.00,OVC,,0.00,WeatherDisplay:10.37,2013-09-05 04:58:00,
2013-09-04 22:03:00,62.9,59.0,30.02,WSW,252,0.0,0.0,87,0.00,OVC,,0.00,WeatherDisplay:10.37,2013-09-05 05:03:00,
2013-09-04 22:08:00,62.8,58.9,30.02,WSW,252,0.0,0.0,87,0.00,OVC,,0.00,WeatherDisplay:10.37,2013-09-05 05:08:00,
2013-09-04 22:13:00,62.7,58.8,30.01,WSW,254,2.3,2.3,87,0.00,OVC,,0.00,WeatherDisplay:10.37,2013-09-05 05:13:00,
2013-09-04 22:18:00,62.5,58.9,30.01,WSW,254,0.0,0.0,88,0.00,OVC,,0.00,WeatherDisplay:10.37,2013-09-05 05:18:00,
2013-09-04 22:23:00,62.4,58.8,30.02,WSW,254,0.0,0.0,88,0.00,OVC,,0.00,WeatherDisplay:10.37,2013-09-05 05:23:00,
2013-09-04 22:28:00,62.3,58.7,30.01,WSW,254,0.0,0.0,88,0.00,OVC,,0.00,WeatherDisplay:10.37,2013-09-05 05:28:00,
2013-09-04 22:33:00,62.2,58.6,30.01,WSW,254,1.0,0.0,88,0.00,OVC,,0.00,WeatherDisplay:10.37,2013-09-05 05:33:00,
2013-09-04 22:38:00,62.0,58.4,30.01,WNW,294,5.0,5.0,88,0.00,OVC,,0.00,WeatherDisplay:10.37,2013-09-05 05:38:00,
2013-09-04 22:43:00,61.8,58.5,30.01,WNW,289,3.5,3.5,89,0.00,OVC,,0.00,WeatherDisplay:10.37,2013-09-05 05:43:00,
2013-09-04 22:48:00,61.5,58.2,30.01,WNW,283,3.5,3.5,89,0.00,OVC,,0.00,WeatherDisplay:10.37,2013-09-05 05:48:00,
2013-09-04 22:53:00,61.4,58.1,30.01,WNW,283,1.1,1.1,89,0.00,OVC,,0.00,WeatherDisplay:10.37,2013-09-05 05:53:00,
2013-09-04 22:58:00,61.2,57.9,30.01,WNW,283,0.0,0.0,89,0.00,OVC,,0.00,WeatherDisplay:10.37,2013-09-05 05:58:00,
2013-09-04 23:03:00,61.0,57.7,30.00,NW,311,3.5,3.5,89,0.00,OVC,,0.00,WeatherDisplay:10.37,2013-09-05 06:03:00,
2013-09-04 23:08:00,60.9,57.6,30.00,NW,304,4.6,4.6,89,0.00,OVC,,0.00,WeatherDisplay:10.37,2013-09-05 06:08:00,
2013-09-04 23:13:00,60.7,57.7,30.00,NNW,328,5.8,5.8,90,0.00,OVC,,0.00,WeatherDisplay:10.37,2013-09-05 06:13:00,
2013-09-04 23:18:00,60.6,57.7,30.00,WNW,300,3.5,0.0,90,0.00,OVC,,0.00,WeatherDisplay:10.37,2013-09-05 06:18:00,
2013-09-04 23:23:00,60.5,57.6,30.00,WNW,291,4.6,4.6,90,0.00,OVC,,0.00,WeatherDisplay:10.37,2013-09-05 06:23:00,
2013-09-04 23:28:00,60.4,57.5,30.00,WNW,285,4.6,4.6,90,0.00,OVC,,0.00,WeatherDisplay:10.37,2013-09-05 06:28:00,
2013-09-04 23:33:00,60.4,57.8,30.00,WNW,294,4.6,4.6,91,0.00,OVC,,0.00,WeatherDisplay:10.37,2013-09-05 06:33:00,
2013-09-04 23:38:00,60.5,57.9,30.00,NW,314,3.5,3.9,91,0.00,OVC,,0.00,WeatherDisplay:10.37,2013-09-05 06:38:00,
2013-09-04 23:43:00,60.5,57.9,30.01,NW,313,4.6,4.6,91,0.00,OVC,,0.00,WeatherDisplay:10.37,2013-09-05 06:43:00,
2013-09-04 23:48:00,60.5,57.9,30.01,WNW,288,3.5,3.5,91,0.00,OVC,,0.00,WeatherDisplay:10.37,2013-09-05 06:48:00,
2013-09-04 23:53:00,60.5,57.9,30.01,WNW,286,3.5,3.5,91,0.00,OVC,,0.00,WeatherDisplay:10.37,2013-09-05 06:53:00,
2013-09-04 23:58:00,60.4,57.8,30.00,WNW,289,11.5,11.5,91,0.00,OVC,,0.00,WeatherDisplay:10.37,2013-09-05 06:58:00,